Time;durP1;ratioP1;P1;durP2;ratioP2;P2;SDS_P1;SDS_P2;PMS_P1;PMS_P2;Temp;Humidity;BMP_temperature;BMP_pressure;BME280_temperature;BME280_humidity;BME280_pressure;Samples;Min_cycle;Max_cycle;Signal;HPM_P1;HPM_P2
2021/11/10 00:02:07;;;;;;;56.58;30.35;;;;;;;;;;5026881;28;20041;-51
2021/11/10 00:04:34;;;;;;;60.30;30.08;;;;;;;;;;5024499;28;20936;-51
2021/11/10 00:07:01;;;;;;;47.13;26.75;;;;;;;;;;5024578;28;20033;-52
2021/11/10 00:09:27;;;;;;;50.70;28.23;;;;;;;;;;5025760;28;20029;-50
2021/11/10 00:11:55;;;;;;;46.28;26.95;;;;;;;;;;5026334;28;20029;-51
2021/11/10 00:14:21;;;;;;;74.30;42.40;;;;;;;;;;5025821;28;20079;-50
2021/11/10 00:16:48;;;;;;;53.47;32.40;;;;;;;;;;5026006;28;20029;-53
2021/11/10 00:19:14;;;;;;;47.67;28.02;;;;;;;;;;5026873;28;20018;-51
2021/11/10 00:21:40;;;;;;;41.58;26.80;;;;;;;;;;5025658;28;20028;-50
2021/11/10 00:24:07;;;;;;;42.92;26.27;;;;;;;;;;5025739;28;20508;-51
2021/11/10 00:26:34;;;;;;;43.63;26.70;;;;;;;;;;5025421;28;20025;-50
2021/11/10 00:29:00;;;;;;;41.45;26.77;;;;;;;;;;5025594;28;20030;-52
2021/11/10 00:31:26;;;;;;;49.90;30.65;;;;;;;;;;5025940;28;20029;-52
2021/11/10 00:33:55;;;;;;;47.08;28.15;;;;;;;;;;5024816;28;20053;-50
2021/11/10 00:36:21;;;;;;;51.90;32.10;;;;;;;;;;5025869;28;20018;-51
2021/11/10 00:38:49;;;;;;;39.75;26.42;;;;;;;;;;5024809;28;20029;-52
2021/11/10 00:41:15;;;;;;;42.55;26.92;;;;;;;;;;5032506;28;20565;-51
2021/11/10 00:43:42;;;;;;;39.47;25.85;;;;;;;;;;5035368;28;20025;-53
2021/11/10 00:46:08;;;;;;;42.55;27.20;;;;;;;;;;5035057;28;20050;-53
2021/11/10 00:48:34;;;;;;;42.42;25.60;;;;;;;;;;5035509;28;20021;-54
2021/11/10 00:51:01;;;;;;;41.78;27.77;;;;;;;;;;5035040;28;20098;-52
2021/11/10 00:53:27;;;;;;;43.30;27.98;;;;;;;;;;5035331;28;20087;-52
2021/11/10 00:55:54;;;;;;;50.90;34.00;;;;;;;;;;5035031;28;20030;-49
2021/11/10 00:58:22;;;;;;;54.28;32.53;;;;;;;;;;5035870;28;20393;-51
2021/11/10 01:00:49;;;;;;;67.65;39.97;;;;;;;;;;5037162;28;20397;-52
2021/11/10 01:03:15;;;;;;;71.75;42.15;;;;;;;;;;5055368;28;20381;-52
2021/11/10 01:05:41;;;;;;;87.45;48.92;;;;;;;;;;5055465;28;20036;-52
2021/11/10 01:08:08;;;;;;;53.75;34.53;;;;;;;;;;5055479;28;20021;-52
2021/11/10 01:10:35;;;;;;;69.70;41.90;;;;;;;;;;5055532;28;20087;-52
2021/11/10 01:13:01;;;;;;;67.35;38.65;;;;;;;;;;5055639;28;20027;-52
2021/11/10 01:15:28;;;;;;;63.55;37.28;;;;;;;;;;5055528;28;20397;-51
2021/11/10 01:17:56;;;;;;;59.55;36.75;;;;;;;;;;5055260;28;20025;-53
2021/11/10 01:20:25;;;;;;;56.47;33.78;;;;;;;;;;5055211;28;20090;-52
2021/11/10 01:22:51;;;;;;;62.38;35.65;;;;;;;;;;5055078;28;20033;-52
2021/11/10 01:25:17;;;;;;;53.53;33.67;;;;;;;;;;5054678;28;20047;-51
2021/11/10 01:27:44;;;;;;;61.25;36.08;;;;;;;;;;5055305;28;20017;-52
2021/11/10 01:30:11;;;;;;;60.83;35.40;;;;;;;;;;5054992;28;20025;-53
2021/11/10 01:32:37;;;;;;;57.03;36.85;;;;;;;;;;5054981;28;20375;-53
2021/11/10 01:35:03;;;;;;;64.05;35.20;;;;;;;;;;5054951;28;20021;-52
2021/11/10 01:37:30;;;;;;;62.67;36.40;;;;;;;;;;5054873;28;20025;-52
2021/11/10 01:39:56;;;;;;;83.20;46.78;;;;;;;;;;5054714;28;20096;-53
2021/11/10 01:42:25;;;;;;;76.38;44.63;;;;;;;;;;5054818;28;20025;-53
2021/11/10 01:44:52;;;;;;;91.32;51.13;;;;;;;;;;5054671;28;20460;-53
2021/11/10 01:47:18;;;;;;;91.00;52.72;;;;;;;;;;5054685;28;20028;-52
2021/11/10 01:49:45;;;;;;;78.55;43.65;;;;;;;;;;5054261;28;20027;-53
2021/11/10 01:52:11;;;;;;;86.60;45.03;;;;;;;;;;5054550;28;20469;-53
2021/11/10 01:54:38;;;;;;;156.20;39.15;;;;;;;;;;5054481;28;20111;-55
2021/11/10 01:57:05;;;;;;;78.00;46.90;;;;;;;;;;5054002;28;20033;-52
2021/11/10 01:59:32;;;;;;;69.43;36.03;;;;;;;;;;5054536;28;20021;-53
2021/11/10 02:01:58;;;;;;;83.53;38.10;;;;;;;;;;5054537;28;20029;-52
2021/11/10 02:04:26;;;;;;;216.38;44.70;;;;;;;;;;5052969;28;20032;-52
2021/11/10 02:06:55;;;;;;;110.10;63.88;;;;;;;;;;5054503;28;20366;-53
2021/11/10 02:09:22;;;;;;;97.20;42.65;;;;;;;;;;5054275;28;20046;-54
2021/11/10 02:11:49;;;;;;;205.18;43.72;;;;;;;;;;5054194;28;20108;-52
2021/11/10 02:14:19;;;;;;;154.18;46.05;;;;;;;;;;5054162;28;20028;-54
2021/11/10 02:16:46;;;;;;;78.63;40.22;;;;;;;;;;5054115;28;20021;-55
2021/11/10 02:19:14;;;;;;;214.13;40.88;;;;;;;;;;5054009;28;20056;-53
2021/11/10 02:21:42;;;;;;;127.80;45.80;;;;;;;;;;5053859;28;20025;-54
2021/11/10 02:24:08;;;;;;;200.02;37.55;;;;;;;;;;5053893;28;20099;-54
2021/11/10 02:26:35;;;;;;;250.65;38.70;;;;;;;;;;5053916;28;20021;-52
2021/11/10 02:29:01;;;;;;;286.98;40.10;;;;;;;;;;5054010;28;20017;-53
2021/11/10 02:31:28;;;;;;;88.70;36.92;;;;;;;;;;5053994;28;20058;-53
2021/11/10 02:33:54;;;;;;;190.38;40.35;;;;;;;;;;5052465;28;20091;-54
2021/11/10 02:36:23;;;;;;;173.63;44.30;;;;;;;;;;5052694;28;20033;-53
2021/11/10 02:38:49;;;;;;;226.52;39.88;;;;;;;;;;5053664;28;20025;-53
2021/11/10 02:41:16;;;;;;;270.17;34.85;;;;;;;;;;5053677;28;20104;-53
2021/11/10 02:43:42;;;;;;;233.52;34.42;;;;;;;;;;5053644;28;20443;-53
2021/11/10 02:46:08;;;;;;;306.33;38.70;;;;;;;;;;5053566;28;20112;-53
2021/11/10 02:48:34;;;;;;;189.27;34.03;;;;;;;;;;5053409;28;20527;-53
2021/11/10 02:51:00;;;;;;;173.48;38.17;;;;;;;;;;5053355;28;20103;-52
2021/11/10 02:53:31;;;;;;;125.40;33.75;;;;;;;;;;5053430;28;20033;-53
2021/11/10 02:55:57;;;;;;;275.60;34.80;;;;;;;;;;5053576;28;20031;-52
2021/11/10 02:58:23;;;;;;;266.17;34.10;;;;;;;;;;5053401;28;20021;-53
2021/11/10 03:00:49;;;;;;;210.15;32.40;;;;;;;;;;5053631;28;20021;-53
2021/11/10 03:03:18;;;;;;;191.38;35.58;;;;;;;;;;5053313;28;20025;-53
2021/11/10 03:05:47;;;;;;;106.82;28.23;;;;;;;;;;5053313;28;20039;-53
2021/11/10 03:08:17;;;;;;;267.95;32.25;;;;;;;;;;5052430;28;20071;-53
2021/11/10 03:10:43;;;;;;;209.02;30.10;;;;;;;;;;5053275;28;20396;-53
2021/11/10 03:13:09;;;;;;;87.95;31.67;;;;;;;;;;5053203;28;20429;-53
2021/11/10 03:15:39;;;;;;;174.32;27.83;;;;;;;;;;5053136;28;20457;-54
2021/11/10 03:18:05;;;;;;;230.77;38.13;;;;;;;;;;5053001;28;20028;-53
2021/11/10 03:20:34;;;;;;;206.10;28.63;;;;;;;;;;5052904;28;20024;-52
2021/11/10 03:23:00;;;;;;;142.77;24.55;;;;;;;;;;5053031;28;20033;-52
2021/11/10 03:25:27;;;;;;;146.82;26.15;;;;;;;;;;5053063;28;20041;-53
2021/11/10 03:27:54;;;;;;;164.52;28.08;;;;;;;;;;5053008;28;20021;-54
2021/11/10 03:30:21;;;;;;;75.72;27.13;;;;;;;;;;5053009;28;20495;-53
2021/11/10 03:32:47;;;;;;;169.35;32.78;;;;;;;;;;5053044;28;20032;-53
2021/11/10 03:35:16;;;;;;;156.13;30.70;;;;;;;;;;5053084;28;20017;-52
2021/11/10 03:37:42;;;;;;;181.20;31.35;;;;;;;;;;5052879;28;20021;-52
2021/11/10 03:40:09;;;;;;;181.75;31.35;;;;;;;;;;5052915;28;20029;-52
2021/11/10 03:42:35;;;;;;;154.52;30.15;;;;;;;;;;5052877;28;20021;-52
2021/11/10 03:45:01;;;;;;;257.00;33.05;;;;;;;;;;5052925;28;20037;-53
2021/11/10 03:47:27;;;;;;;347.88;37.58;;;;;;;;;;5052841;28;20017;-53
2021/11/10 03:49:53;;;;;;;218.25;29.80;;;;;;;;;;5052470;28;20040;-51
2021/11/10 03:52:20;;;;;;;230.38;31.70;;;;;;;;;;5052731;28;20021;-51
2021/11/10 03:54:49;;;;;;;156.75;30.83;;;;;;;;;;5051875;28;20024;-50
2021/11/10 03:57:15;;;;;;;304.63;38.17;;;;;;;;;;5052787;28;20036;-54
2021/11/10 03:59:41;;;;;;;234.52;33.08;;;;;;;;;;5052677;28;20025;-51
2021/11/10 04:02:08;;;;;;;140.13;30.45;;;;;;;;;;5052741;28;20087;-53
2021/11/10 04:04:35;;;;;;;277.98;34.85;;;;;;;;;;5052584;28;20461;-51
2021/11/10 04:07:01;;;;;;;159.13;32.65;;;;;;;;;;5052523;28;20029;-54
2021/11/10 04:09:27;;;;;;;183.05;35.65;;;;;;;;;;5052731;28;20150;-53
2021/11/10 04:11:53;;;;;;;149.88;35.25;;;;;;;;;;5052672;28;20521;-54
2021/11/10 04:14:22;;;;;;;146.05;35.30;;;;;;;;;;5052491;28;20361;-52
2021/11/10 04:16:48;;;;;;;218.88;39.72;;;;;;;;;;5052363;28;20039;-53
2021/11/10 04:19:14;;;;;;;178.98;39.63;;;;;;;;;;5053555;28;20033;-53
2021/11/10 04:21:40;;;;;;;140.95;36.35;;;;;;;;;;5056037;28;20017;-52
2021/11/10 04:24:07;;;;;;;150.68;37.60;;;;;;;;;;5056122;28;20036;-53
2021/11/10 04:26:35;;;;;;;106.30;37.97;;;;;;;;;;5055982;28;20025;-53
2021/11/10 04:29:01;;;;;;;127.03;37.33;;;;;;;;;;5056161;28;20017;-53
2021/11/10 04:31:27;;;;;;;154.60;38.35;;;;;;;;;;5056122;28;20025;-53
2021/11/10 04:33:54;;;;;;;191.15;36.65;;;;;;;;;;5055922;28;20025;-53
2021/11/10 04:36:21;;;;;;;158.75;39.53;;;;;;;;;;5055932;28;20028;-53
2021/11/10 04:38:48;;;;;;;126.68;36.78;;;;;;;;;;5055845;28;20381;-54
2021/11/10 04:41:15;;;;;;;107.50;37.85;;;;;;;;;;5055927;28;20075;-53
2021/11/10 04:43:44;;;;;;;150.80;35.70;;;;;;;;;;5055830;28;20084;-53
2021/11/10 04:48:39;;;;;;;129.52;37.25;;;;;;;;;;5055686;28;20071;-54
2021/11/10 04:51:07;;;;;;;309.90;47.25;;;;;;;;;;5055444;28;20053;-53
2021/11/10 04:53:37;;;;;;;94.43;35.88;;;;;;;;;;5055764;28;20493;-54
2021/11/10 04:56:06;;;;;;;134.23;37.00;;;;;;;;;;5055348;28;20500;-53
2021/11/10 04:58:33;;;;;;;80.35;33.20;;;;;;;;;;5055610;28;20025;-53
2021/11/10 05:01:00;;;;;;;126.13;37.38;;;;;;;;;;5055550;28;20055;-52
2021/11/10 05:03:26;;;;;;;83.50;35.28;;;;;;;;;;5055579;28;20021;-54
2021/11/10 05:05:52;;;;;;;196.35;36.03;;;;;;;;;;5055299;28;20029;-53
2021/11/10 05:08:18;;;;;;;160.70;35.05;;;;;;;;;;5055453;28;20025;-54
2021/11/10 05:10:44;;;;;;;182.07;35.65;;;;;;;;;;5055424;28;20485;-52
2021/11/10 05:13:10;;;;;;;110.63;33.00;;;;;;;;;;5054240;28;20048;-53
2021/11/10 05:15:37;;;;;;;256.15;35.55;;;;;;;;;;5055296;28;20021;-53
2021/11/10 05:18:03;;;;;;;252.60;34.80;;;;;;;;;;5055286;28;20036;-53
2021/11/10 05:20:29;;;;;;;184.80;34.42;;;;;;;;;;5054845;28;20119;-53
2021/11/10 05:22:56;;;;;;;182.32;35.33;;;;;;;;;;5055239;28;20032;-53
2021/11/10 05:25:22;;;;;;;170.85;31.27;;;;;;;;;;5054837;28;20021;-53
2021/11/10 05:27:49;;;;;;;248.57;35.25;;;;;;;;;;5055254;28;20025;-52
2021/11/10 05:30:15;;;;;;;190.43;31.95;;;;;;;;;;5054483;28;20481;-51
2021/11/10 05:32:43;;;;;;;296.73;35.75;;;;;;;;;;5054613;28;20469;-54
2021/11/10 05:35:10;;;;;;;61.15;32.38;;;;;;;;;;5054982;28;20036;-53
2021/11/10 05:37:36;;;;;;;62.53;31.15;;;;;;;;;;5054792;28;20029;-53
2021/11/10 05:40:07;;;;;;;142.20;31.65;;;;;;;;;;5055085;28;20028;-53
2021/11/10 05:42:33;;;;;;;217.82;32.38;;;;;;;;;;5054787;28;20388;-54
2021/11/10 05:45:02;;;;;;;185.95;32.70;;;;;;;;;;5054560;28;20036;-53
2021/11/10 05:47:28;;;;;;;292.83;40.15;;;;;;;;;;5054873;28;20024;-53
2021/11/10 05:49:54;;;;;;;208.48;35.28;;;;;;;;;;5054055;28;20047;-53
2021/11/10 05:52:20;;;;;;;192.43;32.40;;;;;;;;;;5054729;28;20029;-53
2021/11/10 05:54:47;;;;;;;51.60;25.90;;;;;;;;;;5054542;28;20025;-53
2021/11/10 05:57:14;;;;;;;104.25;29.17;;;;;;;;;;5054721;28;20365;-54
2021/11/10 05:59:41;;;;;;;108.13;29.15;;;;;;;;;;5054443;28;20025;-52
2021/11/10 06:02:07;;;;;;;68.55;33.90;;;;;;;;;;5054392;28;20096;-53
2021/11/10 06:04:33;;;;;;;77.95;33.83;;;;;;;;;;5054197;28;20029;-53
2021/11/10 06:07:00;;;;;;;66.57;35.83;;;;;;;;;;5054222;28;20048;-53
2021/11/10 06:09:26;;;;;;;243.32;33.45;;;;;;;;;;5054434;28;20020;-52
2021/11/10 06:11:52;;;;;;;73.47;31.42;;;;;;;;;;5054250;28;20028;-52
2021/11/10 06:14:21;;;;;;;73.07;35.53;;;;;;;;;;5054245;28;20029;-52
2021/11/10 06:16:47;;;;;;;57.58;27.70;;;;;;;;;;5054228;28;20496;-53
2021/11/10 06:19:13;;;;;;;100.45;31.58;;;;;;;;;;5053963;28;20393;-52
2021/11/10 06:21:39;;;;;;;88.35;30.58;;;;;;;;;;5053079;28;20025;-51
2021/11/10 06:24:08;;;;;;;115.50;32.17;;;;;;;;;;5053640;28;20541;-52
2021/11/10 06:26:34;;;;;;;119.22;29.23;;;;;;;;;;5053692;28;20124;-51
2021/11/10 06:29:00;;;;;;;47.40;27.48;;;;;;;;;;5053827;28;20028;-53
2021/11/10 06:31:26;;;;;;;78.70;31.50;;;;;;;;;;5053789;28;20021;-53
2021/11/10 06:33:52;;;;;;;64.07;35.65;;;;;;;;;;5053625;28;20025;-52
2021/11/10 06:36:18;;;;;;;65.15;35.88;;;;;;;;;;5053517;28;20025;-52
2021/11/10 06:38:46;;;;;;;86.72;32.08;;;;;;;;;;5053472;28;20025;-53
2021/11/10 06:41:18;;;;;;;86.45;35.08;;;;;;;;;;5053726;28;20083;-54
2021/11/10 06:43:46;;;;;;;46.70;29.45;;;;;;;;;;5053433;28;20048;-52
2021/11/10 06:46:12;;;;;;;137.85;29.52;;;;;;;;;;5053544;28;20044;-53
2021/11/10 06:48:38;;;;;;;82.43;30.45;;;;;;;;;;5053513;28;20109;-52
2021/11/10 06:51:04;;;;;;;62.63;32.22;;;;;;;;;;5052921;28;20049;-52
2021/11/10 06:53:31;;;;;;;51.05;31.42;;;;;;;;;;5053499;28;20028;-53
2021/11/10 06:55:57;;;;;;;49.70;30.65;;;;;;;;;;5053145;28;20029;-51
2021/11/10 06:58:25;;;;;;;53.10;29.88;;;;;;;;;;5053415;28;20028;-53
2021/11/10 07:00:51;;;;;;;52.60;27.08;;;;;;;;;;5053276;28;20033;-53
2021/11/10 07:03:17;;;;;;;47.28;25.75;;;;;;;;;;5051931;28;20036;-52
2021/11/10 07:05:47;;;;;;;42.28;26.20;;;;;;;;;;5053037;28;20036;-53
2021/11/10 07:08:13;;;;;;;40.90;24.38;;;;;;;;;;5053152;28;20029;-52
2021/11/10 07:10:39;;;;;;;40.85;24.05;;;;;;;;;;5053259;28;20033;-53
2021/11/10 07:13:05;;;;;;;37.95;24.77;;;;;;;;;;5053360;28;20039;-53
2021/11/10 07:15:31;;;;;;;39.67;26.52;;;;;;;;;;5053133;28;20417;-53
2021/11/10 07:17:58;;;;;;;33.17;22.42;;;;;;;;;;5053228;28;20115;-53
2021/11/10 07:20:24;;;;;;;27.40;18.15;;;;;;;;;;5052667;28;20025;-54
2021/11/10 07:22:50;;;;;;;25.95;17.80;;;;;;;;;;5053156;28;20376;-54
2021/11/10 07:25:16;;;;;;;19.60;14.55;;;;;;;;;;5052751;28;20155;-55
2021/11/10 07:27:43;;;;;;;20.55;15.20;;;;;;;;;;5052902;28;20025;-55
2021/11/10 07:30:11;;;;;;;20.48;15.45;;;;;;;;;;5053127;28;20021;-55
2021/11/10 07:32:38;;;;;;;21.48;13.63;;;;;;;;;;5053029;28;20028;-54
2021/11/10 07:35:05;;;;;;;18.35;12.98;;;;;;;;;;5052713;28;20013;-55
2021/11/10 07:37:32;;;;;;;19.05;13.25;;;;;;;;;;5052899;28;20021;-54
2021/11/10 07:39:59;;;;;;;15.85;11.80;;;;;;;;;;5052866;28;20026;-54
2021/11/10 07:42:31;;;;;;;18.00;13.13;;;;;;;;;;5052897;28;20390;-55
2021/11/10 07:45:06;;;;;;;18.25;13.40;;;;;;;;;;5052754;28;20025;-54
2021/11/10 07:47:39;;;;;;;15.07;13.00;;;;;;;;;;5052813;28;20033;-55
2021/11/10 07:50:05;;;;;;;17.25;13.18;;;;;;;;;;5052378;28;20045;-54
2021/11/10 07:52:31;;;;;;;13.90;11.23;;;;;;;;;;5052723;28;20033;-54
2021/11/10 07:54:57;;;;;;;12.88;10.63;;;;;;;;;;5054973;28;20029;-54
2021/11/10 07:57:24;;;;;;;12.48;10.65;;;;;;;;;;5055388;28;20090;-55
2021/11/10 07:59:52;;;;;;;13.95;11.27;;;;;;;;;;5056702;28;20021;-54
2021/11/10 08:02:20;;;;;;;21.92;11.25;;;;;;;;;;5056582;28;20040;-55
2021/11/10 08:04:48;;;;;;;14.63;12.50;;;;;;;;;;5055596;28;20063;-54
2021/11/10 08:07:14;;;;;;;17.35;14.23;;;;;;;;;;5056518;28;20029;-54
2021/11/10 08:09:41;;;;;;;11.82;10.10;;;;;;;;;;5056453;28;20021;-52
2021/11/10 08:12:07;;;;;;;14.57;10.65;;;;;;;;;;5056284;28;20024;-53
2021/11/10 08:14:33;;;;;;;14.85;11.15;;;;;;;;;;5056404;28;20021;-53
2021/11/10 08:16:59;;;;;;;11.32;9.18;;;;;;;;;;5056326;28;20405;-54
2021/11/10 08:19:25;;;;;;;9.20;8.30;;;;;;;;;;5056154;28;20025;-54
2021/11/10 08:21:52;;;;;;;9.88;8.90;;;;;;;;;;5056034;28;20025;-54
2021/11/10 08:24:18;;;;;;;10.07;8.95;;;;;;;;;;5056314;28;20032;-54
2021/11/10 08:26:44;;;;;;;14.10;11.35;;;;;;;;;;5054613;28;20041;-53
2021/11/10 08:29:10;;;;;;;9.68;8.63;;;;;;;;;;5056152;28;20025;-54
2021/11/10 08:31:36;;;;;;;10.40;9.02;;;;;;;;;;5055985;28;20032;-55
2021/11/10 08:34:03;;;;;;;10.55;8.20;;;;;;;;;;5055772;28;20556;-56
2021/11/10 08:36:29;;;;;;;43.15;10.48;;;;;;;;;;5055934;28;20488;-55
2021/11/10 08:38:55;;;;;;;20.38;13.02;;;;;;;;;;5055813;28;20027;-55
2021/11/10 08:41:22;;;;;;;10.35;8.63;;;;;;;;;;5055860;28;20075;-55
2021/11/10 08:43:49;;;;;;;37.25;12.68;;;;;;;;;;5055834;28;20377;-54
2021/11/10 08:46:16;;;;;;;10.48;7.75;;;;;;;;;;5055468;28;20033;-54
2021/11/10 08:48:42;;;;;;;8.77;7.75;;;;;;;;;;5052584;28;20013;-55
2021/11/10 08:51:11;;;;;;;12.18;8.77;;;;;;;;;;5054845;28;20512;-53
2021/11/10 08:53:37;;;;;;;15.07;8.07;;;;;;;;;;5055142;28;20037;-54
2021/11/10 08:56:03;;;;;;;8.35;7.28;;;;;;;;;;5054957;28;20108;-54
2021/11/10 08:58:30;;;;;;;8.18;6.68;;;;;;;;;;5054892;28;20028;-55
2021/11/10 09:00:57;;;;;;;8.98;7.75;;;;;;;;;;5055092;28;20017;-55
2021/11/10 09:03:27;;;;;;;11.07;8.40;;;;;;;;;;5055058;28;20045;-54
2021/11/10 09:05:56;;;;;;;16.38;13.32;;;;;;;;;;5053353;28;20480;-53
2021/11/10 09:08:29;;;;;;;6.32;5.38;;;;;;;;;;5054874;28;20025;-54
2021/11/10 09:10:56;;;;;;;9.18;7.78;;;;;;;;;;5052614;28;20056;-53
2021/11/10 09:13:22;;;;;;;7.82;6.90;;;;;;;;;;5054905;28;20027;-54
2021/11/10 09:15:53;;;;;;;9.82;8.70;;;;;;;;;;5054793;28;20091;-56
2021/11/10 09:18:20;;;;;;;8.75;7.95;;;;;;;;;;5055034;28;20150;-54
2021/11/10 09:20:46;;;;;;;8.10;7.30;;;;;;;;;;5053269;28;20427;-54
2021/11/10 09:23:13;;;;;;;6.45;5.50;;;;;;;;;;5054962;28;20381;-54
2021/11/10 09:25:43;;;;;;;6.35;4.50;;;;;;;;;;5055001;28;20060;-53
2021/11/10 09:28:13;;;;;;;6.65;6.05;;;;;;;;;;5054653;28;20017;-54
2021/11/10 09:30:41;;;;;;;4.43;4.03;;;;;;;;;;5054313;28;20018;-52
2021/11/10 09:33:08;;;;;;;3.85;3.40;;;;;;;;;;5052006;28;20017;-53
2021/11/10 09:35:35;;;;;;;5.68;4.43;;;;;;;;;;5054456;28;20055;-52
2021/11/10 09:38:02;;;;;;;6.03;4.35;;;;;;;;;;5054451;28;20028;-52
2021/11/10 09:40:30;;;;;;;5.00;4.50;;;;;;;;;;5051879;28;20066;-52
2021/11/10 09:42:59;;;;;;;6.18;4.78;;;;;;;;;;5054188;28;20330;-53
2021/11/10 09:45:28;;;;;;;7.35;4.93;;;;;;;;;;5054117;28;20017;-53
2021/11/10 09:47:54;;;;;;;6.80;4.72;;;;;;;;;;5051650;28;20463;-52
2021/11/10 09:50:21;;;;;;;10.52;4.90;;;;;;;;;;5052702;28;20033;-50
2021/11/10 09:52:48;;;;;;;8.60;5.28;;;;;;;;;;5054362;28;20045;-52
2021/11/10 09:55:15;;;;;;;4.15;3.00;;;;;;;;;;5054385;28;20036;-49
2021/11/10 09:57:42;;;;;;;4.38;3.47;;;;;;;;;;5054027;28;20109;-50
2021/11/10 10:00:12;;;;;;;3.42;2.78;;;;;;;;;;5052724;28;20036;-49
2021/11/10 10:02:40;;;;;;;6.43;4.07;;;;;;;;;;5054416;28;20017;-51
2021/11/10 10:05:07;;;;;;;4.30;3.00;;;;;;;;;;5052936;28;20276;-50
2021/11/10 10:07:33;;;;;;;5.47;3.40;;;;;;;;;;5054228;28;20399;-50
2021/11/10 10:09:59;;;;;;;4.20;3.30;;;;;;;;;;5054288;28;20079;-51
2021/11/10 10:12:25;;;;;;;4.45;3.33;;;;;;;;;;5054001;28;20029;-51
2021/11/10 10:14:54;;;;;;;4.80;3.35;;;;;;;;;;5053978;28;20035;-51
2021/11/10 10:17:37;;;;;;;5.15;3.70;;;;;;;;;;5053180;28;20032;-50
2021/11/10 10:20:04;;;;;;;7.38;4.95;;;;;;;;;;5053658;28;20100;-53
2021/11/10 10:22:31;;;;;;;5.88;3.70;;;;;;;;;;5053891;28;20025;-51
2021/11/10 10:24:58;;;;;;;8.70;5.25;;;;;;;;;;5053970;28;20481;-50
2021/11/10 10:27:32;;;;;;;5.65;4.50;;;;;;;;;;5053597;28;20029;-51
2021/11/10 10:30:18;;;;;;;7.45;3.85;;;;;;;;;;5053897;28;20491;-53
2021/11/10 10:32:44;;;;;;;5.05;3.47;;;;;;;;;;5011978;28;20095;-53
2021/11/10 10:35:28;;;;;;;4.38;3.38;;;;;;;;;;5011921;28;20029;-53
2021/11/10 10:37:54;;;;;;;4.13;2.70;;;;;;;;;;5011727;28;20135;-53
2021/11/10 10:40:21;;;;;;;11.75;4.80;;;;;;;;;;5011877;28;20026;-53
2021/11/10 10:42:47;;;;;;;17.10;10.00;;;;;;;;;;5011804;28;20363;-50
2021/11/10 10:45:31;;;;;;;26.58;13.60;;;;;;;;;;5011857;28;20557;-49
2021/11/10 10:48:12;;;;;;;18.63;10.52;;;;;;;;;;5011731;28;20026;-52
2021/11/10 10:50:39;;;;;;;31.83;15.97;;;;;;;;;;5011372;28;20041;-51
2021/11/10 10:53:06;;;;;;;11.05;7.05;;;;;;;;;;5011704;28;20426;-51
2021/11/10 10:55:34;;;;;;;17.02;8.82;;;;;;;;;;5002135;28;20034;-52
2021/11/10 10:58:04;;;;;;;28.17;12.25;;;;;;;;;;4992893;28;20049;-56
2021/11/10 11:00:31;;;;;;;26.33;12.15;;;;;;;;;;4993334;28;20041;-54
2021/11/10 11:03:16;;;;;;;11.05;6.13;;;;;;;;;;4993362;28;20983;-51
2021/11/10 11:05:45;;;;;;;9.85;5.75;;;;;;;;;;4993097;28;20497;-49
2021/11/10 11:08:30;;;;;;;9.52;5.55;;;;;;;;;;4992586;28;20030;-49
2021/11/10 11:10:57;;;;;;;7.03;4.68;;;;;;;;;;5019133;28;20048;-50
2021/11/10 11:13:42;;;;;;;8.55;5.43;;;;;;;;;;5022845;28;20632;-48
2021/11/10 11:16:09;;;;;;;8.88;6.38;;;;;;;;;;5038121;28;20029;-50
2021/11/10 11:18:39;;;;;;;6.95;4.95;;;;;;;;;;5023414;28;20025;-49
2021/11/10 11:21:24;;;;;;;9.75;6.50;;;;;;;;;;5023635;28;20584;-51
2021/11/10 11:23:54;;;;;;;9.98;6.30;;;;;;;;;;5022808;28;20065;-53
2021/11/10 11:26:34;;;;;;;12.35;7.70;;;;;;;;;;5023797;28;20061;-53
2021/11/10 11:29:17;;;;;;;17.02;9.52;;;;;;;;;;5021816;28;20436;-49
2021/11/10 11:31:46;;;;;;;9.60;6.35;;;;;;;;;;5022623;28;20480;-51
2021/11/10 11:34:12;;;;;;;10.90;6.88;;;;;;;;;;5022419;28;20026;-56
2021/11/10 11:36:49;;;;;;;12.95;7.50;;;;;;;;;;5022631;28;20079;-53
2021/11/10 11:39:15;;;;;;;9.35;6.53;;;;;;;;;;5022008;28;20021;-52
2021/11/10 11:41:41;;;;;;;4.28;3.65;;;;;;;;;;5022274;28;20024;-54
2021/11/10 11:44:07;;;;;;;15.93;8.55;;;;;;;;;;5022155;28;20024;-51
2021/11/10 11:46:34;;;;;;;9.55;6.28;;;;;;;;;;5023794;28;20037;-55
2021/11/10 11:49:00;;;;;;;13.68;7.35;;;;;;;;;;5022560;28;20024;-51
2021/11/10 11:51:27;;;;;;;8.02;4.53;;;;;;;;;;5021864;28;20509;-53
2021/11/10 11:54:01;;;;;;;10.07;6.05;;;;;;;;;;5024404;28;20037;-55
2021/11/10 11:56:31;;;;;;;8.98;4.85;;;;;;;;;;5027009;28;20029;-56
2021/11/10 11:58:59;;;;;;;8.40;5.10;;;;;;;;;;5028068;28;20052;-51
2021/11/10 12:01:26;;;;;;;6.68;4.00;;;;;;;;;;5026962;28;20025;-53
2021/11/10 12:03:52;;;;;;;9.60;5.88;;;;;;;;;;5023444;28;20037;-55
2021/11/10 12:06:19;;;;;;;9.15;5.43;;;;;;;;;;5021929;28;20477;-53
2021/11/10 12:08:51;;;;;;;9.25;5.15;;;;;;;;;;5022238;28;20735;-54
2021/11/10 12:11:21;;;;;;;16.95;9.90;;;;;;;;;;5021876;28;20465;-53
2021/11/10 12:13:59;;;;;;;8.43;5.32;;;;;;;;;;5022765;28;20543;-53
2021/11/10 12:16:25;;;;;;;10.20;6.90;;;;;;;;;;5022123;28;20072;-53
2021/11/10 12:19:02;;;;;;;13.65;6.78;;;;;;;;;;5023172;28;20018;-54
2021/11/10 12:21:51;;;;;;;12.75;7.90;;;;;;;;;;5021721;28;20087;-53
2021/11/10 12:24:22;;;;;;;14.05;7.80;;;;;;;;;;4999674;28;20164;-53
2021/11/10 12:27:08;;;;;;;7.10;5.00;;;;;;;;;;4998801;28;20065;-55
2021/11/10 12:29:39;;;;;;;17.60;10.25;;;;;;;;;;4999210;28;20090;-54
2021/11/10 12:32:05;;;;;;;;;;;;;;;;;;4999975;28;20034;-54
2021/11/10 12:34:31;;;;;;;10.57;5.50;;;;;;;;;;4999155;28;20003;-53
2021/11/10 12:37:05;;;;;;;14.23;8.52;;;;;;;;;;4999473;28;20041;-55
2021/11/10 12:39:33;;;;;;;16.35;10.18;;;;;;;;;;4999924;28;20486;-56
2021/11/10 12:42:03;;;;;;;27.02;13.32;;;;;;;;;;5002342;28;20045;-53
2021/11/10 12:44:30;;;;;;;30.08;9.93;;;;;;;;;;5003268;28;20528;-57
2021/11/10 12:47:01;;;;;;;7.10;5.00;;;;;;;;;;5003115;28;20428;-57
2021/11/10 12:49:28;;;;;;;8.50;4.30;;;;;;;;;;5002664;28;20525;-57
2021/11/10 12:52:12;;;;;;;3.92;3.45;;;;;;;;;;5001568;28;20404;-56
2021/11/10 12:54:40;;;;;;;5.78;4.00;;;;;;;;;;5001786;28;20100;-59
2021/11/10 12:57:06;;;;;;;9.25;5.50;;;;;;;;;;5002745;28;20044;-53
2021/11/10 12:59:34;;;;;;;10.25;5.80;;;;;;;;;;5001874;28;20351;-55
2021/11/10 13:02:20;;;;;;;10.00;5.43;;;;;;;;;;5019831;28;20076;-54
2021/11/10 13:04:51;;;;;;;10.02;6.03;;;;;;;;;;5035324;28;20095;-54
2021/11/10 13:07:19;;;;;;;9.10;5.95;;;;;;;;;;5035325;28;20419;-54
2021/11/10 13:09:49;;;;;;;10.15;6.32;;;;;;;;;;5035856;28;20025;-53
2021/11/10 13:12:15;;;;;;;8.48;4.82;;;;;;;;;;5035464;28;20075;-54
2021/11/10 13:14:44;;;;;;;8.25;5.68;;;;;;;;;;5050769;28;20030;-53
2021/11/10 13:17:21;;;;;;;9.48;5.88;;;;;;;;;;5035461;28;20025;-55
2021/11/10 13:19:55;;;;;;;9.57;6.75;;;;;;;;;;5035212;28;20687;-53
2021/11/10 13:22:38;;;;;;;13.75;7.68;;;;;;;;;;5035335;28;20103;-53
2021/11/10 13:25:04;;;;;;;7.57;5.70;;;;;;;;;;5035475;28;20167;-53
2021/11/10 13:27:40;;;;;;;10.07;7.20;;;;;;;;;;5035147;28;20041;-53
2021/11/10 13:30:08;;;;;;;11.02;7.85;;;;;;;;;;5047269;28;20102;-54
2021/11/10 13:32:39;;;;;;;14.95;9.00;;;;;;;;;;5055177;28;20173;-53
2021/11/10 13:35:05;;;;;;;10.07;7.57;;;;;;;;;;5055533;28;20036;-53
2021/11/10 13:37:50;;;;;;;11.93;8.00;;;;;;;;;;5054941;28;20040;-53
2021/11/10 13:40:17;;;;;;;9.70;7.95;;;;;;;;;;5055033;28;20056;-54
2021/11/10 13:42:47;;;;;;;10.93;7.60;;;;;;;;;;5053604;28;20541;-54
2021/11/10 13:45:18;;;;;;;9.57;6.40;;;;;;;;;;5054926;28;20013;-53
2021/11/10 13:47:58;;;;;;;13.90;8.35;;;;;;;;;;5055191;28;20035;-54
2021/11/10 13:50:26;;;;;;;20.35;11.32;;;;;;;;;;5054534;28;20053;-53
2021/11/10 13:53:00;;;;;;;14.98;8.90;;;;;;;;;;5053790;28;20082;-53
2021/11/10 13:55:26;;;;;;;14.60;8.27;;;;;;;;;;5053308;28;20033;-53
2021/11/10 13:57:52;;;;;;;15.15;9.70;;;;;;;;;;5054684;28;20029;-53
2021/11/10 14:00:18;;;;;;;15.00;10.73;;;;;;;;;;5054792;28;20389;-53
2021/11/10 14:02:49;;;;;;;19.77;10.93;;;;;;;;;;5054612;28;20100;-53
2021/11/10 14:05:17;;;;;;;17.80;11.18;;;;;;;;;;5054538;28;20047;-53
2021/11/10 14:07:44;;;;;;;16.90;10.90;;;;;;;;;;5054344;28;20147;-54
2021/11/10 14:10:12;;;;;;;14.63;10.77;;;;;;;;;;5054476;28;20052;-54
2021/11/10 14:12:40;;;;;;;19.55;11.48;;;;;;;;;;5054334;28;20392;-53
2021/11/10 14:15:23;;;;;;;23.63;12.60;;;;;;;;;;5054465;28;20025;-53
2021/11/10 14:17:53;;;;;;;14.93;9.93;;;;;;;;;;5054175;28;20029;-54
2021/11/10 14:20:30;;;;;;;9.95;8.27;;;;;;;;;;5054230;28;20048;-53
2021/11/10 14:23:07;;;;;;;13.90;10.25;;;;;;;;;;5054138;28;20366;-53
2021/11/10 14:25:53;;;;;;;12.18;7.95;;;;;;;;;;5054048;28;20017;-53
2021/11/10 14:28:26;;;;;;;9.38;7.50;;;;;;;;;;5052591;28;20037;-53
2021/11/10 14:30:59;;;;;;;9.05;7.32;;;;;;;;;;5054049;28;20477;-53